Time;durP1;ratioP1;P1;durP2;ratioP2;P2;SDS_P1;SDS_P2;PMS_P1;PMS_P2;Temp;Humidity;BMP_temperature;BMP_pressure;BME280_temperature;BME280_humidity;BME280_pressure;Samples;Min_cycle;Max_cycle;Signal;HPM_P1;HPM_P2
2023/01/08 00:01:23;;;;;;;6.77;3.10;;;;;4.50;93433.00;;;;7395438;19;20149;-74
2023/01/08 00:03:59;;;;;;;5.10;3.80;;;;;4.70;93428.00;;;;7395736;19;20555;-74
2023/01/08 00:06:27;;;;;;;5.23;3.57;;;;;4.90;93429.00;;;;7395857;19;20137;-74
2023/01/08 00:08:55;;;;;;;5.20;3.93;;;;;5.10;93423.00;;;;7394340;19;20144;-74
2023/01/08 00:11:28;;;;;;;6.37;4.27;;;;;5.30;93421.00;;;;7394944;19;20492;-74
2023/01/08 00:13:56;;;;;;;4.43;3.77;;;;;5.50;93417.00;;;;7400662;19;20603;-74
2023/01/08 00:16:23;;;;;;;5.80;3.20;;;;;5.50;93418.00;;;;7403411;19;20133;-74
2023/01/08 00:18:57;;;;;;;4.53;3.03;;;;;5.60;93410.00;;;;7401701;19;20138;-74
2023/01/08 00:21:25;;;;;;;3.57;2.77;;;;;5.60;93389.00;;;;7404010;19;20125;-75
2023/01/08 00:23:58;;;;;;;6.47;3.60;;;;;5.60;93379.00;;;;7404234;19;20124;-74
2023/01/08 00:26:46;;;;;;;3.70;3.00;;;;;5.50;93374.00;;;;7393380;19;20656;-75
2023/01/08 00:29:20;;;;;;;10.20;4.87;;;;;5.40;93363.00;;;;7394447;19;20498;-74
2023/01/08 00:31:54;;;;;;;6.17;4.67;;;;;5.40;93371.00;;;;7404111;19;20584;-74
2023/01/08 00:34:22;;;;;;;7.80;4.53;;;;;5.50;93356.00;;;;7402104;19;20611;-74
2023/01/08 00:36:49;;;;;;;8.37;4.93;;;;;5.50;93358.00;;;;7402503;19;20158;-74
2023/01/08 00:39:23;;;;;;;15.23;8.10;;;;;5.60;93365.00;;;;7400736;19;20144;-74
2023/01/08 00:41:50;;;;;;;19.80;10.53;;;;;5.70;93363.00;;;;7402114;19;20146;-75
2023/01/08 00:44:19;;;;;;;14.77;8.50;;;;;5.80;93357.00;;;;7401216;19;20624;-74
2023/01/08 00:46:53;;;;;;;5.97;4.40;;;;;5.80;93355.00;;;;7402371;19;20139;-74
2023/01/08 00:49:27;;;;;;;9.13;6.63;;;;;5.80;93351.00;;;;7400526;19;20133;-74
2023/01/08 00:52:02;;;;;;;3.73;2.83;;;;;5.70;93352.00;;;;7401752;19;20620;-74
2023/01/08 00:54:31;;;;;;;2.60;1.97;;;;;5.20;93355.00;;;;7399675;19;20192;-74
2023/01/08 00:56:58;;;;;;;3.73;2.57;;;;;5.00;93357.00;;;;7402801;19;20129;-74
2023/01/08 00:59:32;;;;;;;3.73;2.83;;;;;5.10;93356.00;;;;7400380;19;20125;-74
2023/01/08 01:01:59;;;;;;;3.20;2.90;;;;;5.30;93345.00;;;;7401175;19;20507;-74
2023/01/08 01:04:29;;;;;;;6.50;3.20;;;;;5.30;93345.00;;;;7401517;19;20495;-73
2023/01/08 01:07:04;;;;;;;4.73;2.93;;;;;5.20;93349.00;;;;7396971;19;20509;-73
2023/01/08 01:09:33;;;;;;;5.60;3.30;;;;;5.10;93339.00;;;;7400084;19;20113;-74
2023/01/08 01:12:01;;;;;;;3.67;3.10;;;;;5.10;93337.00;;;;7397351;19;20612;-74
2023/01/08 01:14:42;;;;;;;3.80;3.00;;;;;5.00;93337.00;;;;7400339;19;20145;-74
2023/01/08 01:17:11;;;;;;;5.47;3.53;;;;;5.10;93345.00;;;;7398715;19;20823;-74
2023/01/08 01:19:45;;;;;;;4.50;3.53;;;;;4.90;93342.00;;;;7399617;19;20584;-74
2023/01/08 01:22:12;;;;;;;5.77;3.37;;;;;5.10;93340.00;;;;7398018;19;20129;-74
2023/01/08 01:24:41;;;;;;;5.47;3.50;;;;;5.10;93350.00;;;;7397145;19;20611;-75
2023/01/08 01:27:22;;;;;;;3.90;3.00;;;;;5.10;93345.00;;;;7400298;19;20148;-74
2023/01/08 01:29:49;;;;;;;4.77;3.43;;;;;5.30;93351.00;;;;7399483;19;20129;-75
2023/01/08 01:32:23;;;;;;;6.93;3.30;;;;;5.30;93341.00;;;;7401134;19;20125;-75
2023/01/08 01:34:52;;;;;;;5.00;3.20;;;;;5.30;93340.00;;;;7399355;19;20177;-75
2023/01/08 01:37:20;;;;;;;3.63;2.70;;;;;5.30;93340.00;;;;7400963;19;20634;-74
2023/01/08 01:39:55;;;;;;;4.97;2.83;;;;;5.40;93341.00;;;;7399061;19;20159;-74
2023/01/08 01:42:38;;;;;;;3.67;2.80;;;;;5.50;93339.00;;;;7400473;19;20596;-74
2023/01/08 01:45:30;;;;;;;4.17;3.23;;;;;5.50;93337.00;;;;7399457;19;20194;-74
2023/01/08 01:48:09;;;;;;;3.33;2.97;;;;;5.60;93335.00;;;;7399584;19;20121;-75
2023/01/08 01:50:47;;;;;;;3.37;2.70;;;;;5.80;93339.00;;;;7398143;19;20121;-74
2023/01/08 01:53:22;;;;;;;3.50;2.63;;;;;5.90;93343.00;;;;7396094;19;20173;-76
2023/01/08 01:55:57;;;;;;;3.97;2.47;;;;;6.10;93331.00;;;;7397590;19;20153;-74
2023/01/08 01:58:26;;;;;;;5.57;2.67;;;;;6.10;93343.00;;;;7399848;19;20129;-74
2023/01/08 02:00:56;;;;;;;7.13;2.63;;;;;6.00;93318.00;;;;7400292;19;20496;-73
2023/01/08 02:03:39;;;;;;;2.93;2.60;;;;;5.90;93328.00;;;;7397729;19;20129;-73
2023/01/08 02:06:14;;;;;;;3.97;2.50;;;;;6.10;93315.00;;;;7399193;19;20169;-74
2023/01/08 02:09:11;;;;;;;2.70;2.20;;;;;6.00;93306.00;;;;7397641;19;20157;-74
2023/01/08 02:12:17;;;;;;;4.70;2.50;;;;;5.70;93304.00;;;;7398122;19;20143;-74
2023/01/08 02:15:40;;;;;;;6.07;2.57;;;;;5.40;93300.00;;;;7396677;19;20252;-74
2023/01/08 02:18:29;;;;;;;6.17;2.17;;;;;5.30;93306.00;;;;7398012;19;20142;-74
2023/01/08 02:21:13;;;;;;;3.00;2.40;;;;;5.30;93293.00;;;;7397867;19;20157;-74
2023/01/08 02:23:45;;;;;;;4.87;2.30;;;;;5.30;93300.00;;;;7398346;19;20161;-74
2023/01/08 02:26:41;;;;;;;4.67;2.40;;;;;5.00;93294.00;;;;7394209;19;20154;-74
2023/01/08 02:29:24;;;;;;;2.93;2.53;;;;;5.10;93303.00;;;;7397841;19;20516;-74
2023/01/08 02:31:59;;;;;;;4.00;2.97;;;;;5.10;93302.00;;;;7396708;19;20141;-74
2023/01/08 02:34:27;;;;;;;4.63;2.70;;;;;5.10;93299.00;;;;7399244;19;20663;-74
2023/01/08 02:36:56;;;;;;;5.30;2.50;;;;;5.00;93292.00;;;;7396975;19;20592;-74
2023/01/08 02:39:45;;;;;;;3.10;2.70;;;;;5.30;93294.00;;;;7397647;19;20156;-74
2023/01/08 02:42:44;;;;;;;2.77;2.30;;;;;5.20;93289.00;;;;7398575;19;20599;-74
2023/01/08 02:45:27;;;;;;;5.10;2.83;;;;;5.40;93281.00;;;;7397960;19;20140;-74
2023/01/08 02:48:16;;;;;;;3.20;2.50;;;;;5.40;93276.00;;;;7398555;19;20149;-74
2023/01/08 02:51:04;;;;;;;3.37;2.30;;;;;5.50;93275.00;;;;7396647;19;20132;-76
2023/01/08 02:53:38;;;;;;;4.57;2.70;;;;;5.50;93269.00;;;;7392658;19;20152;-76
2023/01/08 02:56:23;;;;;;;3.03;2.40;;;;;5.60;93266.00;;;;7391758;19;20615;-75
2023/01/08 02:58:53;;;;;;;3.90;2.50;;;;;5.60;93270.00;;;;7397824;19;20125;-75
2023/01/08 03:01:27;;;;;;;3.53;2.47;;;;;5.60;93269.00;;;;7394166;19;20177;-74
2023/01/08 03:04:11;;;;;;;5.43;2.73;;;;;5.70;93252.00;;;;7395831;19;20633;-75
2023/01/08 03:06:47;;;;;;;4.13;2.27;;;;;5.60;93254.00;;;;7392154;19;20128;-75
2023/01/08 03:09:16;;;;;;;3.20;2.47;;;;;5.80;93250.00;;;;7397351;19;20654;-75
2023/01/08 03:11:55;;;;;;;4.40;2.30;;;;;5.80;93258.00;;;;7396464;19;20150;-75
2023/01/08 03:14:42;;;;;;;3.47;1.90;;;;;5.70;93254.00;;;;7396431;19;20133;-75
2023/01/08 03:17:18;;;;;;;3.70;2.20;;;;;5.50;93248.00;;;;7395128;19;20148;-74
2023/01/08 03:20:19;;;;;;;3.70;2.60;;;;;5.30;93244.00;;;;7396140;19;20208;-75
2023/01/08 03:22:51;;;;;;;5.10;2.27;;;;;5.30;93242.00;;;;7393835;19;20161;-75
2023/01/08 03:25:28;;;;;;;6.60;2.53;;;;;5.20;93233.00;;;;7394874;19;20156;-75
2023/01/08 03:28:12;;;;;;;3.00;2.67;;;;;5.30;93232.00;;;;7393572;19;20293;-75
2023/01/08 03:30:48;;;;;;;4.90;2.80;;;;;5.70;93222.00;;;;7394559;19;20209;-75
2023/01/08 03:33:16;;;;;;;3.50;2.00;;;;;5.70;93222.00;;;;7395829;19;20137;-75
2023/01/08 03:35:47;;;;;;;4.70;2.40;;;;;5.70;93225.00;;;;7393973;19;20152;-75
2023/01/08 03:38:32;;;;;;;3.23;2.60;;;;;5.80;93235.00;;;;7394552;19;20148;-74
2023/01/08 03:41:05;;;;;;;3.03;2.30;;;;;5.90;93219.00;;;;7395174;19;20137;-74
2023/01/08 03:43:39;;;;;;;4.13;2.80;;;;;5.90;93216.00;;;;7394509;19;20474;-74
2023/01/08 03:46:17;;;;;;;2.73;2.20;;;;;6.10;93216.00;;;;7396650;19;20225;-74
2023/01/08 03:48:55;;;;;;;2.67;1.90;;;;;6.10;93216.00;;;;7397771;19;20149;-75
2023/01/08 03:51:22;;;;;;;4.00;2.20;;;;;6.10;93213.00;;;;7399890;19;20132;-74
2023/01/08 03:53:54;;;;;;;2.80;2.10;;;;;6.30;93220.00;;;;7399796;19;20152;-74
2023/01/08 03:56:27;;;;;;;5.43;2.27;;;;;6.30;93219.00;;;;7402178;19;20157;-76
2023/01/08 03:58:55;;;;;;;3.13;2.07;;;;;6.30;93213.00;;;;7402037;19;20121;-74
2023/01/08 04:01:22;;;;;;;4.93;2.23;;;;;6.20;93218.00;;;;7403308;19;20527;-74
2023/01/08 04:03:57;;;;;;;2.10;1.90;;;;;6.20;93220.00;;;;7399173;19;20940;-74
2023/01/08 04:06:24;;;;;;;4.47;2.13;;;;;6.10;93230.00;;;;7402783;19;20128;-75
2023/01/08 04:08:52;;;;;;;4.70;2.37;;;;;6.00;93221.00;;;;7403539;19;20188;-74
2023/01/08 04:11:26;;;;;;;3.70;2.10;;;;;6.00;93221.00;;;;7400276;19;20133;-75
2023/01/08 04:13:54;;;;;;;3.53;2.03;;;;;6.10;93219.00;;;;7400565;19;20180;-74
2023/01/08 04:16:22;;;;;;;3.00;2.13;;;;;6.00;93220.00;;;;7401187;19;20157;-74
2023/01/08 04:18:57;;;;;;;2.03;1.70;;;;;6.00;93216.00;;;;7399026;19;20129;-74
2023/01/08 04:21:24;;;;;;;4.17;2.07;;;;;6.00;93233.00;;;;7401998;19;20139;-74
2023/01/08 04:23:53;;;;;;;3.33;2.40;;;;;6.00;93228.00;;;;7403822;19;20617;-74
2023/01/08 04:26:27;;;;;;;4.30;2.20;;;;;6.00;93234.00;;;;7399090;19;20159;-74
2023/01/08 04:29:04;;;;;;;4.27;2.30;;;;;5.90;93232.00;;;;7396058;19;20149;-75
2023/01/08 04:31:39;;;;;;;3.30;2.00;;;;;5.90;93233.00;;;;7398848;19;20159;-75
2023/01/08 04:34:06;;;;;;;4.20;2.03;;;;;5.90;93226.00;;;;7400372;19;20129;-75
2023/01/08 04:36:33;;;;;;;2.23;2.03;;;;;6.00;93235.00;;;;7403398;19;20136;-75
2023/01/08 04:39:10;;;;;;;3.90;1.97;;;;;6.00;93231.00;;;;7402273;19;20140;-75
2023/01/08 04:41:38;;;;;;;4.10;2.00;;;;;6.10;93220.00;;;;7401180;19;20136;-74
2023/01/08 04:44:05;;;;;;;3.40;1.97;;;;;6.10;93230.00;;;;7400362;19;20169;-75
2023/01/08 04:46:39;;;;;;;3.20;2.90;;;;;6.10;93221.00;;;;7401322;19;20137;-75
2023/01/08 04:49:07;;;;;;;6.93;2.40;;;;;6.20;93220.00;;;;7402439;19;20198;-75
2023/01/08 04:51:34;;;;;;;4.03;1.80;;;;;6.20;93214.00;;;;7397657;19;20611;-75
2023/01/08 04:54:08;;;;;;;4.17;1.87;;;;;6.10;93214.00;;;;7398123;19;20208;-75
2023/01/08 04:56:36;;;;;;;6.70;2.30;;;;;6.20;93224.00;;;;7401301;19;20151;-75
2023/01/08 04:59:03;;;;;;;2.23;1.97;;;;;6.20;93223.00;;;;7399767;19;20161;-75
2023/01/08 05:01:37;;;;;;;3.37;1.90;;;;;6.20;93216.00;;;;7398463;19;20156;-75
2023/01/08 05:04:05;;;;;;;3.63;1.77;;;;;6.30;93222.00;;;;7399628;19;20480;-75
2023/01/08 05:06:32;;;;;;;4.40;1.80;;;;;6.30;93223.00;;;;7399094;19;20160;-75
2023/01/08 05:09:06;;;;;;;2.20;1.87;;;;;6.20;93210.00;;;;7400295;19;20509;-75
2023/01/08 05:11:36;;;;;;;3.67;2.00;;;;;6.20;93214.00;;;;7393665;19;20149;-75
2023/01/08 05:14:05;;;;;;;3.53;1.90;;;;;6.20;93210.00;;;;7401508;19;20137;-75
2023/01/08 05:16:41;;;;;;;2.43;1.97;;;;;6.10;93200.00;;;;7397778;19;20615;-75
2023/01/08 05:19:09;;;;;;;3.37;2.20;;;;;6.10;93200.00;;;;7400402;19;20628;-75
2023/01/08 05:21:36;;;;;;;2.50;1.87;;;;;6.00;93206.00;;;;7395402;19;20149;-76
2023/01/08 05:24:10;;;;;;;3.97;2.03;;;;;6.00;93196.00;;;;7400432;19;20456;-76
2023/01/08 05:26:43;;;;;;;3.70;2.00;;;;;5.90;93205.00;;;;7398178;19;20129;-75
2023/01/08 05:29:24;;;;;;;2.57;1.80;;;;;6.00;93202.00;;;;7396329;19;20132;-76
2023/01/08 05:31:52;;;;;;;2.00;1.77;;;;;6.00;93199.00;;;;7396970;19;20153;-76
2023/01/08 05:34:27;;;;;;;1.83;1.60;;;;;6.10;93207.00;;;;7400776;19;20156;-76
2023/01/08 05:36:55;;;;;;;1.97;1.77;;;;;5.80;93209.00;;;;7398814;19;20125;-76
2023/01/08 05:39:22;;;;;;;1.90;1.70;;;;;5.90;93199.00;;;;7399679;19;20145;-77
2023/01/08 05:41:56;;;;;;;2.00;1.50;;;;;5.90;93205.00;;;;7400924;19;20471;-76
2023/01/08 05:44:23;;;;;;;1.90;1.60;;;;;6.00;93198.00;;;;7402107;19;20588;-76
2023/01/08 05:46:52;;;;;;;1.40;1.30;;;;;5.80;93205.00;;;;7398869;19;20156;-77
2023/01/08 05:49:27;;;;;;;2.43;1.60;;;;;5.80;93200.00;;;;7396206;19;20176;-77
2023/01/08 05:51:57;;;;;;;1.63;1.53;;;;;5.80;93207.00;;;;7398114;19;20151;-77
2023/01/08 05:54:24;;;;;;;1.93;1.40;;;;;5.80;93203.00;;;;7393747;19;20219;-77
2023/01/08 05:56:59;;;;;;;2.60;1.50;;;;;5.70;93200.00;;;;7398904;19;20607;-80
2023/01/08 05:59:26;;;;;;;1.20;1.10;;;;;5.70;93196.00;;;;7397140;19;20166;-77
2023/01/08 06:01:54;;;;;;;1.80;1.20;;;;;5.70;93194.00;;;;7395747;19;20699;-77
2023/01/08 06:04:30;;;;;;;1.80;1.27;;;;;5.70;93176.00;;;;7396756;19;20141;-77
2023/01/08 06:07:02;;;;;;;1.73;1.23;;;;;5.70;93183.00;;;;7399193;19;20132;-77
2023/01/08 06:09:30;;;;;;;1.27;1.10;;;;;5.60;93187.00;;;;7397068;19;20125;-78
2023/01/08 06:12:04;;;;;;;1.20;1.10;;;;;5.70;93182.00;;;;7394109;19;20167;-77
2023/01/08 06:14:31;;;;;;;1.90;1.20;;;;;5.60;93191.00;;;;7399867;19;20149;-77
2023/01/08 06:16:59;;;;;;;1.33;1.17;;;;;5.70;93190.00;;;;7398983;19;20125;-77
2023/01/08 06:19:35;;;;;;;1.23;1.10;;;;;5.70;93182.00;;;;7393460;19;20615;-77
2023/01/08 06:22:02;;;;;;;1.30;1.20;;;;;5.70;93184.00;;;;7387364;19;20132;-78
2023/01/08 06:24:30;;;;;;;1.13;1.03;;;;;5.70;93178.00;;;;7396196;19;20161;-76
2023/01/08 06:27:11;;;;;;;0.90;0.90;;;;;5.70;93189.00;;;;7397786;19;20534;-76
2023/01/08 06:29:46;;;;;;;1.10;0.97;;;;;5.60;93188.00;;;;7398580;19;20125;-76
2023/01/08 06:32:23;;;;;;;2.70;1.20;;;;;5.70;93170.00;;;;7396341;19;20125;-76
2023/01/08 06:34:51;;;;;;;1.27;1.13;;;;;5.70;93176.00;;;;7397602;19;20159;-76
2023/01/08 06:37:18;;;;;;;3.40;1.27;;;;;5.60;93164.00;;;;7395495;19;20156;-77
2023/01/08 06:39:52;;;;;;;2.03;1.10;;;;;5.70;93167.00;;;;7398210;19;20957;-77
2023/01/08 06:42:20;;;;;;;5.50;1.40;;;;;5.70;93169.00;;;;7399580;19;20149;-77
2023/01/08 06:44:47;;;;;;;1.33;1.13;;;;;5.80;93177.00;;;;7397630;19;20180;-78
2023/01/08 06:47:21;;;;;;;1.93;1.40;;;;;5.80;93170.00;;;;7396543;19;20804;-78
2023/01/08 06:49:51;;;;;;;1.60;1.47;;;;;5.80;93177.00;;;;7398163;19;20179;-77
2023/01/08 06:52:18;;;;;;;2.10;1.50;;;;;5.80;93170.00;;;;7396045;19;20491;-78
2023/01/08 06:54:55;;;;;;;1.83;1.50;;;;;5.90;93167.00;;;;7399013;19;20141;-78
2023/01/08 06:57:23;;;;;;;3.00;1.40;;;;;5.90;93164.00;;;;7397532;19;20132;-77
2023/01/08 06:59:51;;;;;;;2.07;1.60;;;;;5.90;93172.00;;;;7396692;19;20169;-77
2023/01/08 07:02:24;;;;;;;2.23;1.30;;;;;5.90;93167.00;;;;7396711;19;20137;-77
2023/01/08 07:04:52;;;;;;;2.50;1.50;;;;;5.80;93163.00;;;;7399663;19;20144;-78
2023/01/08 07:07:20;;;;;;;1.80;1.50;;;;;5.80;93177.00;;;;7397474;19;20153;-77
2023/01/08 07:09:54;;;;;;;2.30;1.67;;;;;5.80;93185.00;;;;7398585;19;20164;-77
2023/01/08 07:12:23;;;;;;;1.50;1.40;;;;;5.70;93168.00;;;;7395172;19;20167;-78
2023/01/08 07:14:51;;;;;;;2.60;1.50;;;;;5.70;93172.00;;;;7398760;19;20161;-82
2023/01/08 07:17:31;;;;;;;3.37;1.63;;;;;5.70;93177.00;;;;7398490;19;20152;-80
2023/01/08 07:19:58;;;;;;;3.47;1.70;;;;;5.70;93162.00;;;;7393741;19;20615;-82
2023/01/08 07:22:32;;;;;;;1.73;1.50;;;;;5.60;93174.00;;;;7398878;19;20160;-80
2023/01/08 07:25:00;;;;;;;1.60;1.50;;;;;5.70;93178.00;;;;7399116;19;20178;-80
2023/01/08 07:27:28;;;;;;;2.03;1.83;;;;;5.70;93177.00;;;;7398521;19;20220;-80
2023/01/08 07:30:03;;;;;;;1.70;1.60;;;;;5.80;93179.00;;;;7399541;19;20586;-79
2023/01/08 07:32:31;;;;;;;1.70;1.60;;;;;5.70;93182.00;;;;7396547;19;20160;-82
2023/01/08 07:34:59;;;;;;;1.53;1.43;;;;;5.70;93189.00;;;;7399445;19;20165;-81
2023/01/08 07:37:38;;;;;;;2.60;1.50;;;;;5.70;93181.00;;;;7400742;19;20145;-83
2023/01/08 07:40:07;;;;;;;2.37;1.50;;;;;5.60;93182.00;;;;7399613;19;20153;-82
2023/01/08 07:42:43;;;;;;;2.50;1.67;;;;;5.70;93189.00;;;;7399375;19;20524;-82
2023/01/08 07:45:11;;;;;;;2.53;1.53;;;;;5.70;93190.00;;;;7398910;19;20157;-81
2023/01/08 07:47:39;;;;;;;2.60;1.63;;;;;5.70;93197.00;;;;7397689;19;20137;-81
2023/01/08 07:50:16;;;;;;;1.90;1.53;;;;;5.70;93182.00;;;;7398480;19;20151;-81
2023/01/08 07:52:44;;;;;;;1.67;1.53;;;;;5.70;93174.00;;;;7394431;19;20149;-80
2023/01/08 07:55:11;;;;;;;1.70;1.23;;;;;5.80;93190.00;;;;7396717;19;20187;-81
2023/01/08 07:57:50;;;;;;;1.40;1.30;;;;;5.70;93165.00;;;;7397407;19;20139;-81
2023/01/08 08:00:19;;;;;;;1.43;1.10;;;;;5.80;93178.00;;;;7399087;19;20627;-81
2023/01/08 08:02:46;;;;;;;1.40;1.20;;;;;5.80;93171.00;;;;7396947;19;20610;-80
2023/01/08 08:05:25;;;;;;;1.00;0.90;;;;;5.80;93179.00;;;;7395906;19;20131;-82
2023/01/08 08:07:53;;;;;;;1.50;1.10;;;;;5.70;93173.00;;;;7400311;19;20147;-81
2023/01/08 08:10:22;;;;;;;1.53;1.33;;;;;5.70;93167.00;;;;7401673;19;20639;-83
2023/01/08 08:12:57;;;;;;;2.10;1.37;;;;;5.80;93172.00;;;;7397130;19;20759;-81
2023/01/08 08:15:25;;;;;;;2.20;1.00;;;;;5.80;93170.00;;;;7398716;19;20156;-81
2023/01/08 08:17:53;;;;;;;2.83;1.47;;;;;5.90;93166.00;;;;7396861;19;20149;-81
2023/01/08 08:20:28;;;;;;;1.00;1.00;;;;;5.80;93166.00;;;;7399116;19;20489;-82
2023/01/08 08:23:04;;;;;;;1.40;1.30;;;;;5.80;93164.00;;;;7399164;19;20137;-80
2023/01/08 08:25:39;;;;;;;2.73;1.50;;;;;5.80;93157.00;;;;7401269;19;20156;-81
2023/01/08 08:28:14;;;;;;;1.60;1.33;;;;;5.80;93151.00;;;;7400783;19;20160;-79
2023/01/08 08:30:55;;;;;;;1.63;1.30;;;;;5.90;93152.00;;;;7398611;19;20536;-80
2023/01/08 08:33:23;;;;;;;2.00;1.20;;;;;5.80;93143.00;;;;7397845;19;20629;-80
2023/01/08 08:35:58;;;;;;;2.43;1.20;;;;;5.90;93152.00;;;;7406248;19;20163;-80
2023/01/08 08:38:26;;;;;;;3.43;1.60;;;;;5.80;93151.00;;;;7403135;19;20152;-80
2023/01/08 08:40:54;;;;;;;2.00;1.40;;;;;5.80;93144.00;;;;7405036;19;20173;-80
2023/01/08 08:43:31;;;;;;;1.43;1.13;;;;;5.90;93157.00;;;;7405834;19;20550;-80
2023/01/08 08:45:59;;;;;;;1.63;1.13;;;;;5.90;93139.00;;;;7402458;19;20156;-79
2023/01/08 08:48:27;;;;;;;1.30;1.20;;;;;5.80;93139.00;;;;7402472;19;20564;-79
2023/01/08 08:51:02;;;;;;;2.07;1.60;;;;;5.80;93146.00;;;;7403133;19;20155;-78
2023/01/08 08:53:32;;;;;;;2.30;2.10;;;;;5.90;93152.00;;;;7401835;19;20191;-79
2023/01/08 08:56:02;;;;;;;2.00;1.80;;;;;5.90;93144.00;;;;7401571;19;20555;-79
2023/01/08 08:58:45;;;;;;;1.40;1.13;;;;;5.80;93142.00;;;;7402996;19;20153;-78
2023/01/08 09:01:13;;;;;;;0.80;0.80;;;;;5.90;93144.00;;;;7401217;19;20456;-79
2023/01/08 09:03:47;;;;;;;1.47;1.17;;;;;5.90;93154.00;;;;7402281;19;20140;-78
2023/01/08 09:06:19;;;;;;;1.93;1.50;;;;;6.00;93153.00;;;;7401624;19;20148;-77
2023/01/08 09:08:47;;;;;;;1.27;1.17;;;;;5.90;93144.00;;;;7400175;19;20599;-78
2023/01/08 09:11:21;;;;;;;1.40;1.20;;;;;5.90;93155.00;;;;7400418;19;20133;-77
2023/01/08 09:13:48;;;;;;;46.27;27.00;;;;;6.10;93145.00;;;;7399821;19;20479;-80
2023/01/08 09:16:17;;;;;;;1.97;1.07;;;;;6.00;93152.00;;;;7400603;19;20512;-79
2023/01/08 09:18:51;;;;;;;2.93;1.17;;;;;6.00;93153.00;;;;7399179;19;20586;-79
2023/01/08 09:21:20;;;;;;;1.30;1.20;;;;;6.00;93143.00;;;;7401987;19;20212;-77
2023/01/08 09:23:53;;;;;;;17.00;12.37;;;;;6.10;93152.00;;;;7400807;19;20177;-79
2023/01/08 09:26:31;;;;;;;1.10;1.00;;;;;6.20;93153.00;;;;7399937;19;20160;-78
2023/01/08 09:29:06;;;;;;;23.90;15.63;;;;;6.20;93157.00;;;;7395700;19;20157;-78
2023/01/08 09:31:45;;;;;;;3.47;1.07;;;;;6.20;93153.00;;;;7402560;19;20603;-79
2023/01/08 09:34:14;;;;;;;8.00;5.60;;;;;6.10;93167.00;;;;7398240;19;20147;-78
2023/01/08 09:36:43;;;;;;;36.43;21.47;;;;;6.30;93167.00;;;;7396096;19;20588;-81
2023/01/08 09:39:18;;;;;;;1.30;1.20;;;;;6.30;93154.00;;;;7392125;19;20167;-80
2023/01/08 09:41:48;;;;;;;1.50;1.20;;;;;6.30;93153.00;;;;7395613;19;20144;-79
2023/01/08 09:44:30;;;;;;;3.00;2.27;;;;;6.50;93154.00;;;;7392362;19;20190;-79
2023/01/08 09:47:06;;;;;;;3.20;2.37;;;;;6.60;93155.00;;;;7389127;19;20209;-78
2023/01/08 09:49:44;;;;;;;4.67;3.10;;;;;6.50;93159.00;;;;7391695;19;20153;-79
2023/01/08 09:52:19;;;;;;;3.20;2.20;;;;;6.70;93165.00;;;;7389590;19;20129;-80
2023/01/08 09:54:47;;;;;;;1.10;1.00;;;;;6.60;93169.00;;;;7389079;19;20176;-80
2023/01/08 09:57:19;;;;;;;0.80;0.80;;;;;6.60;93174.00;;;;7391606;19;20121;-79
2023/01/08 09:59:54;;;;;;;2.10;1.20;;;;;6.70;93171.00;;;;7393489;19;20165;-80
2023/01/08 10:02:28;;;;;;;0.73;0.73;;;;;6.70;93170.00;;;;7389762;19;20149;-79
2023/01/08 10:05:13;;;;;;;1.23;1.13;;;;;6.80;93168.00;;;;7390198;19;20240;-80
2023/01/08 10:07:42;;;;;;;1.20;0.70;;;;;6.70;93162.00;;;;7392390;19;20152;-80
2023/01/08 10:10:24;;;;;;;0.97;0.90;;;;;6.70;93158.00;;;;7393692;19;20614;-80
2023/01/08 10:12:53;;;;;;;1.93;1.00;;;;;6.70;93157.00;;;;7392936;19;20129;-80
2023/01/08 10:15:28;;;;;;;1.00;0.90;;;;;6.80;93169.00;;;;7391145;19;20132;-80
2023/01/08 10:18:02;;;;;;;0.73;0.70;;;;;6.70;93161.00;;;;7393318;19;20165;-81
2023/01/08 10:20:38;;;;;;;2.20;0.80;;;;;6.70;93154.00;;;;7390465;19;20516;-80
2023/01/08 10:23:12;;;;;;;1.17;1.00;;;;;6.80;93152.00;;;;7392932;19;20162;-80
2023/01/08 10:26:00;;;;;;;0.73;0.73;;;;;6.90;93144.00;;;;7393417;19;20140;-80
2023/01/08 10:28:35;;;;;;;0.67;0.60;;;;;7.00;93137.00;;;;7391210;19;20677;-80
2023/01/08 10:31:22;;;;;;;0.60;0.60;;;;;6.90;93137.00;;;;7392000;19;20167;-79
2023/01/08 10:33:50;;;;;;;0.73;0.60;;;;;6.80;93138.00;;;;7392882;19;20137;-81
2023/01/08 10:36:26;;;;;;;0.60;0.40;;;;;6.80;93135.00;;;;7392417;19;20696;-80
2023/01/08 10:39:02;;;;;;;0.83;0.67;;;;;6.80;93130.00;;;;7392337;19;20521;-81
2023/01/08 10:41:39;;;;;;;0.70;0.70;;;;;6.90;93122.00;;;;7395877;19;20162;-80
2023/01/08 10:44:15;;;;;;;0.70;0.70;;;;;6.90;93132.00;;;;7393519;19;20140;-80
2023/01/08 10:46:54;;;;;;;1.07;0.97;;;;;6.90;93130.00;;;;7394444;19;20136;-79
2023/01/08 10:49:33;;;;;;;0.60;0.60;;;;;6.80;93131.00;;;;7395148;19;20148;-79
2023/01/08 10:52:26;;;;;;;0.77;0.60;;;;;6.90;93132.00;;;;7391135;19;20158;-81
2023/01/08 10:54:54;;;;;;;0.77;0.70;;;;;6.80;93130.00;;;;7392608;19;20188;-81
2023/01/08 10:57:31;;;;;;;0.80;0.80;;;;;6.90;93133.00;;;;7393859;19;20157;-80
2023/01/08 11:00:00;;;;;;;0.80;0.80;;;;;6.90;93118.00;;;;7392887;19;20161;-81
2023/01/08 11:02:37;;;;;;;0.80;0.80;;;;;6.80;93120.00;;;;7391968;19;20513;-82
2023/01/08 11:05:14;;;;;;;0.40;0.40;;;;;6.80;93108.00;;;;7393097;19;20145;-81
2023/01/08 11:07:46;;;;;;;0.50;0.50;;;;;6.90;93102.00;;;;7393091;19;20156;-81
2023/01/08 11:10:24;;;;;;;0.67;0.40;;;;;7.10;93102.00;;;;7391690;19;20167;-82
2023/01/08 11:13:00;;;;;;;0.70;0.70;;;;;7.00;93096.00;;;;7391126;19;20224;-83
2023/01/08 11:15:37;;;;;;;0.83;0.70;;;;;7.20;93093.00;;;;7391281;19;20153;-83
2023/01/08 11:18:27;;;;;;;0.73;0.73;;;;;7.40;93089.00;;;;7392828;19;20190;-83
2023/01/08 11:21:16;;;;;;;1.13;0.50;;;;;7.60;93081.00;;;;7394609;19;20616;-83
2023/01/08 11:23:45;;;;;;;1.23;0.60;;;;;7.70;93062.00;;;;7392427;19;20164;-81
2023/01/08 11:26:21;;;;;;;0.50;0.50;;;;;7.90;93072.00;;;;7394086;19;20619;-84
2023/01/08 11:29:23;;;;;;;0.67;0.50;;;;;7.90;93068.00;;;;7393535;19;20149;-84
2023/01/08 11:32:23;;;;;;;0.60;0.60;;;;;8.10;93055.00;;;;7399597;19;20152;-84
2023/01/08 11:35:09;;;;;;;0.60;0.40;;;;;8.40;93054.00;;;;7394192;19;20153;-85
2023/01/08 11:37:53;;;;;;;0.50;0.50;;;;;8.70;93056.00;;;;7395643;19;20153;-83
2023/01/08 11:40:50;;;;;;;0.43;0.40;;;;;8.60;93054.00;;;;7399008;19;20133;-84
2023/01/08 11:43:43;;;;;;;0.53;0.50;;;;;8.50;93045.00;;;;7393246;19;20164;-86
2023/01/08 11:46:26;;;;;;;0.50;0.50;;;;;8.60;93046.00;;;;7396479;19;20232;-84
2023/01/08 11:49:28;;;;;;;0.52;0.52;;;;;8.60;93032.00;;;;7397216;19;20152;-83
2023/01/08 11:52:25;;;;;;;0.43;0.43;;;;;9.20;93024.00;;;;7394423;19;20644;-83
2023/01/08 11:55:28;;;;;;;0.50;0.50;;;;;9.70;93012.00;;;;7395401;19;20172;-82
2023/01/08 11:58:25;;;;;;;1.20;0.40;;;;;9.80;93024.00;;;;7395374;19;20137;-82
2023/01/08 12:01:24;;;;;;;0.70;0.38;;;;;9.20;93020.00;;;;7393727;19;20163;-82
2023/01/08 12:04:23;;;;;;;0.60;0.50;;;;;8.90;93006.00;;;;7393143;19;20166;-81
2023/01/08 12:07:18;;;;;;;0.50;0.50;;;;;8.90;93000.00;;;;7393776;19;20657;-81
2023/01/08 12:10:00;;;;;;;2.08;0.88;;;;;8.40;93003.00;;;;7398730;19;20171;-82
2023/01/08 12:13:00;;;;;;;0.65;0.63;;;;;8.20;93007.00;;;;7401954;19;20140;-81
2023/01/08 12:15:56;;;;;;;1.45;1.35;;;;;8.10;93006.00;;;;7402732;19;20149;-81
2023/01/08 12:19:05;;;;;;;1.00;0.90;;;;;7.90;93000.00;;;;7401889;19;20173;-80
2023/01/08 12:25:39;;;;;;;0.50;0.50;;;;;7.90;93004.00;;;;7397997;19;20156;-79
2023/01/08 12:28:46;;;;;;;0.82;0.77;;;;;8.00;93008.00;;;;7399461;19;20164;-79
2023/01/08 12:31:49;;;;;;;0.77;0.77;;;;;8.30;93017.00;;;;7403660;19;20160;-79
2023/01/08 12:35:00;;;;;;;0.98;0.90;;;;;8.30;93009.00;;;;7399918;19;20186;-80
2023/01/08 12:37:48;;;;;;;0.43;0.43;;;;;8.40;93008.00;;;;7400579;19;20208;-81
2023/01/08 12:40:40;;;;;;;0.77;0.47;;;;;8.10;93003.00;;;;7401097;19;20498;-79
2023/01/08 12:43:48;;;;;;;1.23;0.93;;;;;8.00;92995.00;;;;7402816;19;20156;-80
2023/01/08 12:46:25;;;;;;;0.80;0.80;;;;;8.00;92999.00;;;;7403571;19;20148;-80
2023/01/08 12:48:58;;;;;;;0.50;0.50;;;;;8.00;92995.00;;;;7401553;19;20153;-80
2023/01/08 12:51:44;;;;;;;1.27;0.93;;;;;8.00;92992.00;;;;7400354;19;20180;-81
2023/01/08 12:54:21;;;;;;;0.40;0.40;;;;;8.10;93001.00;;;;7398219;19;20156;-78
2023/01/08 12:57:14;;;;;;;0.77;0.60;;;;;8.00;92994.00;;;;7400825;19;20157;-80
2023/01/08 13:00:02;;;;;;;0.68;0.60;;;;;8.10;92986.00;;;;7401037;19;20580;-80
2023/01/08 13:02:51;;;;;;;1.33;0.60;;;;;8.80;92970.00;;;;7394111;19;20137;-79
2023/01/08 13:05:20;;;;;;;0.45;0.45;;;;;9.70;92943.00;;;;7400490;19;20129;-79
2023/01/08 15:03:00;;;;;;;1.60;0.30;;;;;6.20;92858.00;;;;7373767;19;20705;-76
2023/01/08 15:05:35;;;;;;;0.50;0.40;;;;;6.30;92864.00;;;;7395151;19;20171;-80
2023/01/08 15:15:54;;;;;;;0.60;0.60;;;;;6.00;92867.00;;;;7363470;19;20152;-79